createdAt,value
2018-09-04T00:01:33.087Z,22.42
2018-09-04T00:04:09.758Z,22.19
2018-09-04T00:06:47.960Z,22.29
2018-09-04T00:09:21.864Z,22.64
2018-09-04T00:14:46.173Z,22.52
2018-09-04T00:17:29.027Z,22.58
2018-09-04T00:20:06.642Z,22.88
2018-09-04T00:22:46.862Z,23.05
2018-09-04T00:25:26.640Z,22.77
2018-09-04T00:28:06.534Z,22.73
2018-09-04T00:30:48.802Z,22.54
2018-09-04T00:33:19.024Z,22.34
2018-09-04T00:35:49.456Z,22.37
2018-09-04T00:38:20.977Z,22.25
2018-09-04T00:40:52.681Z,22.03
2018-09-04T00:43:23.381Z,21.88
2018-09-04T00:45:58.347Z,22.06
2018-09-04T00:48:29.268Z,22.18
2018-09-04T00:51:01.348Z,22.07
2018-09-04T00:53:31.058Z,22.00
2018-09-04T00:56:02.875Z,22.09
2018-09-04T00:58:33.542Z,22.28
2018-09-04T01:01:04.744Z,22.27
2018-09-04T01:03:35.632Z,22.23
2018-09-04T01:06:07.924Z,22.33
2018-09-04T01:08:41.921Z,22.25
2018-09-04T01:11:12.468Z,22.13
2018-09-04T01:13:48.945Z,22.07
2018-09-04T01:16:23.900Z,22.06
2018-09-04T01:18:56.149Z,22.00
2018-09-04T01:21:27.263Z,21.98
2018-09-04T01:23:58.575Z,21.95
2018-09-04T01:26:28.611Z,21.96
2018-09-04T01:28:58.646Z,22.07
2018-09-04T01:31:46.259Z,22.00
2018-09-04T01:34:29.318Z,22.00
2018-09-04T01:37:04.782Z,22.03
2018-09-04T01:39:37.999Z,22.03
2018-09-04T01:42:21.233Z,22.09
2018-09-04T01:45:02.436Z,21.93
2018-09-04T01:47:37.703Z,21.89
2018-09-04T01:50:16.135Z,22.07
2018-09-04T01:52:53.311Z,22.18
2018-09-04T01:55:34.645Z,21.97
2018-09-04T01:58:21.012Z,22.18
2018-09-04T02:00:55.250Z,22.03
2018-09-04T02:03:27.177Z,21.99
2018-09-04T02:06:06.333Z,21.98
2018-09-04T02:08:43.173Z,21.55
2018-09-04T02:11:19.298Z,21.56
2018-09-04T02:13:55.536Z,21.47
2018-09-04T02:16:38.877Z,21.52
2018-09-04T02:19:15.232Z,21.52
2018-09-04T02:21:50.156Z,21.53
2018-09-04T02:24:30.408Z,21.64
2018-09-04T02:27:09.965Z,21.62
2018-09-04T02:29:49.162Z,21.92
2018-09-04T02:32:30.280Z,21.72
2018-09-04T02:35:07.890Z,21.40
2018-09-04T02:37:47.048Z,21.21
2018-09-04T02:43:10.653Z,21.46
2018-09-04T02:45:46.633Z,21.26
2018-09-04T02:48:28.503Z,21.23
2018-09-04T02:51:08.446Z,21.36
2018-09-04T02:53:46.664Z,20.92
2018-09-04T02:56:25.362Z,21.23
2018-09-04T02:59:09.896Z,21.52
2018-09-04T03:01:51.111Z,21.33
2018-09-04T03:04:38.659Z,21.31
2018-09-04T03:07:16.113Z,21.12
2018-09-04T03:12:31.112Z,21.58
2018-09-04T03:15:06.718Z,21.30
2018-09-04T03:17:47.755Z,21.51
2018-09-04T03:23:00.440Z,21.62
2018-09-04T03:25:29.948Z,21.58
2018-09-04T03:28:00.714Z,21.42
2018-09-04T03:30:32.483Z,21.25
2018-09-04T03:33:04.393Z,21.35
2018-09-04T03:35:35.103Z,21.40
2018-09-04T03:38:05.596Z,21.37
2018-09-04T03:40:37.112Z,21.58
2018-09-04T03:43:09.704Z,21.59
2018-09-04T03:45:41.942Z,21.36
2018-09-04T03:48:15.304Z,21.59
2018-09-04T03:50:48.776Z,21.52
2018-09-04T03:53:20.968Z,21.59
2018-09-04T03:55:52.470Z,21.66
2018-09-04T03:58:25.002Z,21.56
2018-09-04T04:00:56.956Z,21.67
2018-09-04T04:03:29.610Z,21.69
2018-09-04T04:06:01.952Z,21.62
2018-09-04T04:13:45.984Z,21.62
2018-09-04T04:16:21.035Z,21.55
2018-09-04T04:18:54.436Z,21.48
2018-09-04T04:21:27.616Z,21.62
2018-09-04T04:26:40.230Z,21.62
2018-09-04T04:29:14.236Z,21.62
2018-09-04T04:31:45.381Z,21.64
2018-09-04T04:34:19.276Z,21.78
2018-09-04T04:36:49.256Z,21.81
2018-09-04T04:39:21.075Z,21.88
2018-09-04T04:41:54.507Z,21.82
2018-09-04T04:44:27.845Z,22.07
2018-09-04T04:47:02.795Z,22.02
2018-09-04T04:49:35.815Z,22.20
2018-09-04T04:52:11.962Z,22.22
2018-09-04T04:54:42.861Z,22.09
2018-09-04T04:57:15.354Z,22.12
2018-09-04T04:59:47.848Z,22.16
2018-09-04T05:02:20.362Z,22.11
2018-09-04T05:04:54.492Z,22.06
2018-09-04T05:10:05.925Z,22.23
2018-09-04T05:12:37.339Z,22.28
2018-09-04T05:15:09.708Z,22.39
2018-09-04T05:17:40.664Z,22.20
2018-09-04T05:20:16.823Z,22.31
2018-09-04T05:22:50.395Z,22.13
2018-09-04T05:25:22.384Z,22.17
2018-09-04T05:27:53.177Z,22.15
2018-09-04T05:30:31.963Z,21.86
2018-09-04T05:33:09.020Z,21.67
2018-09-04T05:35:47.842Z,21.87
2018-09-04T05:38:22.749Z,21.84
2018-09-04T05:40:56.490Z,21.33
2018-09-04T05:43:41.861Z,21.07
2018-09-04T05:46:18.156Z,21.32
2018-09-04T05:48:53.678Z,22.03
2018-09-04T05:51:25.609Z,22.10
2018-09-04T05:53:59.184Z,21.91
2018-09-04T05:56:32.584Z,21.91
2018-09-04T05:59:04.958Z,22.12
2018-09-04T06:01:46.882Z,21.76
2018-09-04T06:04:25.409Z,21.92
2018-09-04T06:07:01.426Z,21.92
2018-09-04T06:09:40.161Z,22.02
2018-09-04T06:12:14.662Z,22.45
2018-09-04T06:14:45.902Z,22.63
2018-09-04T06:17:23.540Z,22.86
2018-09-04T06:22:49.034Z,22.79
2018-09-04T06:25:28.772Z,23.16
2018-09-04T06:28:11.778Z,23.20
2018-09-04T06:30:48.079Z,23.30
2018-09-04T06:33:28.794Z,23.17
2018-09-04T06:36:10.718Z,23.01
2018-09-04T06:38:50.347Z,22.86
2018-09-04T06:41:28.269Z,23.11
2018-09-04T06:44:03.754Z,22.95
2018-09-04T06:46:42.039Z,23.09
2018-09-04T06:49:24.762Z,23.16
2018-09-04T06:52:07.756Z,23.82
2018-09-04T06:54:42.739Z,23.74
2018-09-04T06:57:19.410Z,23.68
2018-09-04T06:59:55.550Z,24.06
2018-09-04T07:02:42.383Z,23.71
2018-09-04T07:05:20.836Z,23.94
2018-09-04T07:07:57.535Z,24.06
2018-09-04T07:10:35.623Z,24.15
2018-09-04T07:13:16.642Z,23.94
2018-09-04T07:15:54.635Z,23.83
2018-09-04T07:18:32.147Z,23.54
2018-09-04T07:21:11.366Z,23.67
2018-09-04T07:26:32.242Z,24.22
2018-09-04T07:29:09.247Z,24.54
2018-09-04T07:31:46.082Z,24.53
2018-09-04T07:34:18.690Z,24.33
2018-09-04T07:36:56.784Z,24.28
2018-09-04T07:39:32.251Z,24.44
2018-09-04T07:42:09.658Z,24.51
2018-09-04T07:44:43.885Z,24.47
2018-09-04T07:47:20.597Z,24.33
2018-09-04T07:49:58.414Z,24.47
2018-09-04T07:52:38.506Z,24.37
2018-09-04T07:55:14.761Z,24.39
2018-09-04T08:00:37.416Z,24.33
2018-09-04T08:03:10.684Z,24.49
2018-09-04T08:05:46.303Z,24.43
2018-09-04T08:08:24.527Z,24.51
2018-09-04T08:11:01.796Z,24.39
2018-09-04T08:13:41.536Z,24.80
2018-09-04T08:16:27.620Z,24.66
2018-09-04T08:19:06.387Z,24.46
2018-09-04T08:21:45.459Z,24.80
2018-09-04T08:24:22.474Z,25.00
2018-09-04T08:26:57.940Z,24.92
2018-09-04T08:29:33.101Z,24.98
2018-09-04T08:32:08.731Z,24.89
2018-09-04T08:34:44.152Z,24.88
2018-09-04T08:37:20.174Z,25.21
2018-09-04T08:40:06.736Z,25.23
2018-09-04T08:42:45.232Z,24.95
2018-09-04T08:45:23.589Z,24.86
2018-09-04T08:48:01.753Z,25.07
2018-09-04T08:50:34.815Z,25.04
2018-09-04T08:53:13.488Z,25.08
2018-09-04T08:55:52.929Z,24.97
2018-09-04T08:58:29.540Z,25.41
2018-09-04T09:01:04.583Z,25.51
2018-09-04T09:03:41.614Z,25.67
2018-09-04T09:06:20.714Z,25.46
2018-09-04T09:08:56.916Z,25.89
2018-09-04T09:11:33.743Z,25.81
2018-09-04T09:14:12.968Z,25.70
2018-09-04T09:16:48.853Z,25.59
2018-09-04T09:19:25.691Z,25.22
2018-09-04T09:22:03.674Z,25.41
2018-09-04T09:24:40.496Z,25.55
2018-09-04T09:27:15.532Z,25.53
2018-09-04T09:29:48.323Z,25.32
2018-09-04T09:32:25.555Z,25.40
2018-09-04T09:35:07.347Z,25.59
2018-09-04T09:37:47.349Z,25.43
2018-09-04T09:40:26.829Z,25.07
2018-09-04T09:43:09.281Z,24.90
2018-09-04T09:45:47.684Z,25.21
2018-09-04T09:48:30.645Z,25.46
2018-09-04T09:51:07.078Z,25.52
2018-09-04T09:53:48.590Z,25.49
2018-09-04T09:56:32.935Z,25.68
2018-09-04T10:04:19.534Z,25.83
2018-09-04T10:07:05.720Z,25.95
2018-09-04T10:09:47.972Z,26.29
2018-09-04T10:17:54.993Z,26.52
2018-09-04T10:20:31.241Z,26.10
2018-09-04T10:23:09.146Z,26.42
2018-09-04T10:25:42.491Z,26.51
2018-09-04T10:28:13.919Z,26.77
2018-09-04T10:30:45.121Z,26.62
2018-09-04T10:33:17.969Z,26.41
2018-09-04T10:35:56.414Z,26.48
2018-09-04T10:38:28.326Z,26.66
2018-09-04T10:41:04.659Z,26.59
2018-09-04T10:43:43.054Z,26.77
2018-09-04T10:46:25.793Z,27.10
2018-09-04T10:49:12.181Z,27.10
2018-09-04T10:51:52.321Z,26.89
2018-09-04T10:54:38.010Z,26.96
2018-09-04T10:57:17.836Z,27.33
2018-09-04T11:02:04.564Z,27.39
2018-09-04T11:07:08.485Z,27.39
2018-09-04T11:09:39.044Z,27.07
2018-09-04T11:14:40.116Z,27.22
2018-09-04T11:17:09.133Z,27.43
2018-09-04T11:19:36.268Z,27.34
2018-09-04T11:22:05.902Z,27.56
2018-09-04T11:24:35.487Z,27.44
2018-09-04T11:27:03.649Z,27.30
2018-09-04T11:29:32.069Z,27.15
2018-09-04T11:32:00.889Z,27.57
2018-09-04T11:34:29.800Z,27.52
2018-09-04T11:36:57.658Z,27.09
2018-09-04T11:39:25.835Z,26.55
2018-09-04T11:41:54.455Z,26.67
2018-09-04T11:44:22.229Z,27.03
2018-09-04T11:49:22.201Z,26.77
2018-09-04T11:51:52.218Z,26.93
2018-09-04T11:54:23.214Z,27.40
2018-09-04T11:56:50.141Z,27.73
2018-09-04T11:59:22.483Z,28.05
2018-09-04T12:01:51.720Z,28.19
2018-09-04T12:04:20.000Z,28.30
2018-09-04T12:06:49.852Z,28.18
2018-09-04T12:09:17.656Z,27.46
2018-09-04T12:11:46.807Z,27.60
2018-09-04T12:16:45.877Z,27.66
2018-09-04T12:19:15.031Z,27.91
2018-09-04T12:21:42.876Z,27.76
2018-09-04T12:24:09.887Z,27.70
2018-09-04T12:26:37.434Z,27.96
2018-09-04T12:29:04.802Z,27.76
2018-09-04T12:31:32.109Z,28.34
2018-09-04T12:34:02.038Z,28.70
2018-09-04T12:36:30.859Z,28.62
2018-09-04T12:38:58.244Z,28.37
2018-09-04T12:41:27.196Z,27.68
2018-09-04T12:43:54.169Z,28.07
2018-09-04T12:46:23.634Z,28.03
2018-09-04T12:48:50.783Z,28.31
2018-09-04T12:51:18.482Z,28.77
2018-09-04T12:53:50.114Z,28.38
2018-09-04T12:56:17.359Z,28.34
2018-09-04T12:58:45.963Z,28.99
2018-09-04T13:01:12.956Z,29.73
2018-09-04T13:03:39.470Z,30.19
2018-09-04T13:06:05.937Z,29.54
2018-09-04T13:08:33.311Z,28.99
2018-09-04T13:11:00.574Z,29.09
2018-09-04T13:13:27.612Z,29.02
2018-09-04T13:15:54.120Z,29.56
2018-09-04T13:18:21.197Z,29.79
2018-09-04T13:20:47.821Z,29.76
2018-09-04T13:23:14.740Z,29.35
2018-09-04T13:25:42.064Z,29.41
2018-09-04T13:28:08.653Z,29.71
2018-09-04T13:30:35.788Z,30.07
2018-09-04T13:33:03.195Z,30.30
2018-09-04T13:35:30.423Z,30.28
2018-09-04T13:37:57.051Z,29.94
2018-09-04T13:40:24.403Z,29.67
2018-09-04T13:42:51.764Z,29.76
2018-09-04T13:45:19.041Z,29.67
2018-09-04T13:47:47.163Z,29.36
2018-09-04T13:50:13.924Z,30.21
2018-09-04T13:52:42.405Z,30.71
2018-09-04T13:55:09.493Z,30.15
2018-09-04T13:57:36.263Z,30.07
2018-09-04T14:00:02.956Z,29.60
2018-09-04T14:02:29.541Z,29.68
2018-09-04T14:04:56.566Z,29.77
2018-09-04T14:07:23.129Z,29.72
2018-09-04T14:09:50.296Z,29.97
2018-09-04T14:12:16.801Z,29.99
2018-09-04T14:14:44.141Z,29.92
2018-09-04T14:17:11.311Z,29.22
2018-09-04T14:19:37.843Z,29.26
2018-09-04T14:24:36.605Z,28.66
2018-09-04T14:27:03.105Z,28.96
2018-09-04T14:31:57.883Z,29.34
2018-09-04T14:34:25.210Z,29.10
2018-09-04T14:36:53.060Z,29.11
2018-09-04T14:39:20.159Z,29.01
2018-09-04T14:41:47.458Z,28.72
2018-09-04T14:44:15.553Z,28.73
2018-09-04T14:46:42.615Z,28.50
2018-09-04T14:49:09.551Z,28.55
2018-09-04T14:51:36.082Z,28.88
2018-09-04T14:54:02.758Z,28.92
2018-09-04T14:56:29.223Z,28.95
2018-09-04T14:58:55.732Z,29.36
2018-09-04T15:01:22.226Z,29.20
2018-09-04T15:03:48.679Z,29.39
2018-09-04T15:06:15.899Z,29.32
2018-09-04T15:08:42.578Z,29.02
2018-09-04T15:11:09.225Z,28.93
2018-09-04T15:13:35.725Z,28.60
2018-09-04T15:16:02.237Z,28.44
2018-09-04T15:18:29.487Z,28.91
2018-09-04T15:20:56.719Z,28.91
2018-09-04T15:23:23.466Z,28.29
2018-09-04T15:25:50.696Z,28.62
2018-09-04T15:28:19.914Z,28.75
2018-09-04T15:30:46.664Z,28.60
2018-09-04T15:33:13.506Z,28.43
2018-09-04T15:35:42.055Z,28.59
2018-09-04T15:38:09.441Z,28.49
2018-09-04T15:40:36.616Z,28.46
2018-09-04T15:43:03.208Z,28.24
2018-09-04T15:45:29.749Z,28.03
2018-09-04T15:47:57.291Z,28.01
2018-09-04T15:50:24.797Z,28.09
2018-09-04T15:52:52.298Z,28.13
2018-09-04T15:55:19.653Z,28.02
2018-09-04T15:57:46.898Z,27.94
2018-09-04T16:00:13.387Z,28.01
2018-09-04T16:02:39.925Z,28.07
2018-09-04T16:05:06.718Z,28.35
2018-09-04T16:07:33.320Z,28.04
2018-09-04T16:10:00.637Z,27.89
2018-09-04T16:12:27.376Z,27.83
2018-09-04T16:14:54.130Z,27.64
2018-09-04T16:17:22.652Z,27.43
2018-09-04T16:19:49.390Z,27.36
2018-09-04T16:22:17.910Z,27.49
2018-09-04T16:24:45.298Z,27.50
2018-09-04T16:27:12.814Z,27.51
2018-09-04T16:29:39.318Z,27.31
2018-09-04T16:32:06.116Z,27.22
2018-09-04T16:34:32.734Z,27.15
2018-09-04T16:36:59.494Z,27.11
2018-09-04T16:39:26.804Z,27.12
2018-09-04T16:41:53.435Z,27.11
2018-09-04T16:44:21.323Z,27.03
2018-09-04T16:46:48.133Z,26.83
2018-09-04T16:49:17.584Z,26.68
2018-09-04T16:51:44.105Z,26.57
2018-09-04T16:54:11.432Z,26.52
2018-09-04T16:56:37.919Z,26.56
2018-09-04T16:59:04.512Z,26.58
2018-09-04T17:01:30.992Z,26.39
2018-09-04T17:03:58.479Z,26.23
2018-09-04T17:06:25.243Z,26.05
2018-09-04T17:08:52.833Z,26.02
2018-09-04T17:11:19.342Z,25.71
2018-09-04T17:13:47.056Z,25.61
2018-09-04T17:16:13.824Z,25.45
2018-09-04T17:18:41.733Z,25.65
2018-09-04T17:21:08.209Z,25.75
2018-09-04T17:23:34.708Z,25.81
2018-09-04T17:26:01.811Z,25.86
2018-09-04T17:31:00.660Z,25.78
2018-09-04T17:33:27.891Z,25.61
2018-09-04T17:35:55.331Z,25.52
2018-09-04T17:38:26.382Z,25.44
2018-09-04T17:40:54.290Z,25.45
2018-09-04T17:43:21.474Z,25.49
2018-09-04T17:45:48.978Z,25.46
2018-09-04T17:48:15.530Z,25.42
2018-09-04T17:50:42.644Z,25.44
2018-09-04T17:53:10.965Z,25.46
2018-09-04T17:55:38.088Z,25.53
2018-09-04T17:58:04.544Z,25.47
2018-09-04T18:00:31.031Z,25.46
2018-09-04T18:02:57.514Z,25.31
2018-09-04T18:05:24.069Z,24.94
2018-09-04T18:07:53.736Z,24.92
2018-09-04T18:10:21.911Z,25.14
2018-09-04T18:12:49.277Z,25.37
2018-09-04T18:15:17.447Z,25.30
2018-09-04T18:17:46.610Z,25.03
2018-09-04T18:20:14.385Z,24.96
2018-09-04T18:27:45.509Z,25.11
2018-09-04T18:30:14.162Z,25.38
2018-09-04T18:32:44.839Z,25.56
2018-09-04T18:35:15.199Z,25.58
2018-09-04T18:37:42.370Z,25.27
2018-09-04T18:42:44.635Z,25.08
2018-09-04T18:45:11.261Z,24.94
2018-09-04T18:47:40.701Z,24.76
2018-09-04T18:50:08.574Z,24.69
2018-09-04T18:52:39.309Z,24.34
2018-09-04T18:55:10.245Z,24.39
2018-09-04T18:57:39.074Z,24.59
2018-09-04T19:00:07.245Z,24.63
2018-09-04T19:02:34.640Z,24.42
2018-09-04T19:05:01.473Z,24.79
2018-09-04T19:07:30.468Z,24.60
2018-09-04T19:09:59.296Z,24.83
2018-09-04T19:12:25.829Z,24.77
2018-09-04T19:14:54.459Z,24.56
2018-09-04T19:17:25.233Z,24.37
2018-09-04T19:19:55.472Z,24.50
2018-09-04T19:22:25.712Z,24.30
2018-09-04T19:24:56.821Z,24.29
2018-09-04T19:27:25.500Z,24.25
2018-09-04T19:29:54.726Z,24.53
2018-09-04T19:32:25.618Z,24.15
2018-09-04T19:34:55.382Z,24.16
2018-09-04T19:37:23.231Z,24.17
2018-09-04T19:39:53.894Z,23.88
2018-09-04T19:42:22.519Z,23.79
2018-09-04T19:44:51.693Z,23.87
2018-09-04T19:52:29.007Z,24.25
2018-09-04T19:54:55.669Z,24.43
2018-09-04T19:57:23.297Z,24.17
2018-09-04T19:59:51.634Z,23.96
2018-09-04T20:02:21.790Z,23.59
2018-09-04T20:04:49.380Z,23.53
2018-09-04T20:07:16.472Z,23.69
2018-09-04T20:12:20.915Z,23.53
2018-09-04T20:14:51.169Z,23.49
2018-09-04T20:17:21.513Z,23.36
2018-09-04T20:19:48.861Z,23.57
2018-09-04T20:24:49.121Z,23.27
2018-09-04T20:29:49.508Z,23.47
2018-09-04T20:32:17.826Z,23.27
2018-09-04T20:34:48.054Z,23.50
2018-09-04T20:37:18.018Z,23.36
2018-09-04T20:39:47.350Z,23.25
2018-09-04T20:42:15.409Z,23.15
2018-09-04T20:47:17.890Z,23.12
2018-09-04T20:52:58.241Z,23.21
2018-09-04T20:55:25.987Z,23.32
2018-09-04T20:57:53.937Z,23.56
2018-09-04T21:00:23.889Z,23.48
2018-09-04T21:02:52.149Z,23.50
2018-09-04T21:05:24.804Z,23.35
2018-09-04T21:07:52.569Z,23.30
2018-09-04T21:12:54.066Z,23.62
2018-09-04T21:15:23.954Z,23.59
2018-09-04T21:17:53.787Z,23.97
2018-09-04T21:20:23.928Z,23.99
2018-09-04T21:22:52.111Z,23.98
2018-09-04T21:25:19.202Z,23.83
2018-09-04T21:27:46.676Z,23.76
2018-09-04T21:30:14.066Z,23.86
2018-09-04T21:32:41.916Z,23.82
2018-09-04T21:35:09.328Z,23.80
2018-09-04T21:37:35.817Z,23.67
2018-09-04T21:40:04.158Z,23.60
2018-09-04T21:42:31.683Z,23.96
2018-09-04T21:44:58.947Z,23.71
2018-09-04T21:47:25.414Z,23.59
2018-09-04T21:49:53.432Z,23.80
2018-09-04T21:52:20.892Z,23.88
2018-09-04T21:54:48.838Z,24.02
2018-09-04T21:57:16.578Z,24.00
2018-09-04T21:59:44.211Z,23.87
2018-09-04T22:02:11.411Z,23.94
2018-09-04T22:04:40.432Z,23.84
2018-09-04T22:07:07.020Z,23.93
2018-09-04T22:09:34.368Z,23.79
2018-09-04T22:14:33.720Z,23.25
2018-09-04T22:17:01.982Z,23.23
2018-09-04T22:19:29.290Z,23.34
2018-09-04T22:21:56.492Z,23.19
2018-09-04T22:24:23.719Z,23.20
2018-09-04T22:26:51.034Z,23.30
2018-09-04T22:29:18.410Z,23.36
2018-09-04T22:31:44.955Z,23.43
2018-09-04T22:34:12.106Z,23.68
2018-09-04T22:36:40.322Z,23.57
2018-09-04T22:39:07.482Z,23.54
2018-09-04T22:41:34.834Z,23.43
2018-09-04T22:44:03.224Z,23.33
2018-09-04T22:46:31.507Z,23.23
2018-09-04T22:48:58.810Z,22.97
2018-09-04T22:51:26.835Z,22.80
2018-09-04T22:53:53.945Z,23.01
2018-09-04T22:56:22.339Z,23.05
2018-09-04T22:58:49.455Z,23.10
2018-09-04T23:01:17.086Z,23.36
2018-09-04T23:03:45.644Z,23.55
2018-09-04T23:06:13.580Z,23.43
2018-09-04T23:08:42.692Z,23.28
2018-09-04T23:11:10.671Z,23.62
2018-09-04T23:13:38.360Z,23.63
2018-09-04T23:16:05.707Z,23.21
2018-09-04T23:18:33.503Z,23.11
2018-09-04T23:21:01.922Z,23.40
2018-09-04T23:23:28.982Z,23.32
2018-09-04T23:25:55.800Z,23.17
2018-09-04T23:28:24.359Z,23.17
2018-09-04T23:30:50.932Z,23.12
2018-09-04T23:33:20.578Z,22.85
2018-09-04T23:35:49.131Z,22.55
2018-09-04T23:38:15.774Z,22.58
2018-09-04T23:40:42.535Z,22.73
2018-09-04T23:43:09.159Z,22.49
2018-09-04T23:45:35.954Z,22.65
2018-09-04T23:48:04.453Z,22.86
2018-09-04T23:50:31.755Z,22.54
2018-09-04T23:52:59.336Z,22.33
2018-09-04T23:55:27.976Z,22.36
2018-09-04T23:57:55.065Z,22.23
